sensor_id;sensor_type;location;lat;lon;timestamp;temperature;humidity
22532;DHT22;11432;46.924;7.114;2024-03-08T00:01:15;1.50;1.00
22532;DHT22;11432;46.924;7.114;2024-03-08T00:03:42;1.50;1.00
22532;DHT22;11432;46.924;7.114;2024-03-08T00:06:07;1.50;1.00
22532;DHT22;11432;46.924;7.114;2024-03-08T00:08:33;1.50;1.00
22532;DHT22;11432;46.924;7.114;2024-03-08T00:10:59;1.40;1.00
22532;DHT22;11432;46.924;7.114;2024-03-08T00:13:24;1.30;1.00
22532;DHT22;11432;46.924;7.114;2024-03-08T00:15:50;1.40;24.60
22532;DHT22;11432;46.924;7.114;2024-03-08T00:18:16;1.40;92.30
22532;DHT22;11432;46.924;7.114;2024-03-08T00:20:42;1.40;52.50
22532;DHT22;11432;46.924;7.114;2024-03-08T00:23:09;1.40;56.00
22532;DHT22;11432;46.924;7.114;2024-03-08T00:25:36;1.40;59.10
22532;DHT22;11432;46.924;7.114;2024-03-08T00:28:01;1.40;57.40
22532;DHT22;11432;46.924;7.114;2024-03-08T00:30:27;1.30;99.90
22532;DHT22;11432;46.924;7.114;2024-03-08T00:32:53;1.20;99.90
22532;DHT22;11432;46.924;7.114;2024-03-08T00:35:18;1.30;99.90
22532;DHT22;11432;46.924;7.114;2024-03-08T00:37:44;1.20;99.90
22532;DHT22;11432;46.924;7.114;2024-03-08T00:40:12;1.30;99.90
22532;DHT22;11432;46.924;7.114;2024-03-08T00:42:38;1.30;99.90
22532;DHT22;11432;46.924;7.114;2024-03-08T00:45:05;1.20;99.90
22532;DHT22;11432;46.924;7.114;2024-03-08T00:47:31;1.30;99.90
22532;DHT22;11432;46.924;7.114;2024-03-08T00:49:56;1.30;99.90
22532;DHT22;11432;46.924;7.114;2024-03-08T00:52:23;1.40;99.90
22532;DHT22;11432;46.924;7.114;2024-03-08T00:54:49;1.50;99.90
22532;DHT22;11432;46.924;7.114;2024-03-08T00:57:15;1.50;99.90
22532;DHT22;11432;46.924;7.114;2024-03-08T00:59:41;1.50;99.90
22532;DHT22;11432;46.924;7.114;2024-03-08T01:02:06;1.50;99.90
22532;DHT22;11432;46.924;7.114;2024-03-08T01:04:33;1.40;99.90
22532;DHT22;11432;46.924;7.114;2024-03-08T01:06:59;1.40;99.90
22532;DHT22;11432;46.924;7.114;2024-03-08T01:09:26;1.50;99.90
22532;DHT22;11432;46.924;7.114;2024-03-08T01:11:52;1.40;99.90
22532;DHT22;11432;46.924;7.114;2024-03-08T01:14:20;1.40;99.90
22532;DHT22;11432;46.924;7.114;2024-03-08T01:16:48;1.40;99.90
22532;DHT22;11432;46.924;7.114;2024-03-08T01:19:13;1.50;99.90
22532;DHT22;11432;46.924;7.114;2024-03-08T01:21:39;1.50;99.90
22532;DHT22;11432;46.924;7.114;2024-03-08T01:24:05;1.60;99.90
22532;DHT22;11432;46.924;7.114;2024-03-08T01:26:31;1.60;99.90
22532;DHT22;11432;46.924;7.114;2024-03-08T01:28:56;1.60;99.90
22532;DHT22;11432;46.924;7.114;2024-03-08T01:31:22;1.70;99.90
22532;DHT22;11432;46.924;7.114;2024-03-08T01:33:47;1.70;99.90
22532;DHT22;11432;46.924;7.114;2024-03-08T01:36:15;1.70;99.90
22532;DHT22;11432;46.924;7.114;2024-03-08T01:38:42;1.70;99.90
22532;DHT22;11432;46.924;7.114;2024-03-08T01:41:08;1.70;99.90
22532;DHT22;11432;46.924;7.114;2024-03-08T01:43:34;1.60;99.90
22532;DHT22;11432;46.924;7.114;2024-03-08T01:46:00;1.60;99.90
22532;DHT22;11432;46.924;7.114;2024-03-08T01:48:28;1.60;99.90
22532;DHT22;11432;46.924;7.114;2024-03-08T01:50:56;1.60;99.90
22532;DHT22;11432;46.924;7.114;2024-03-08T01:53:24;1.60;99.90
22532;DHT22;11432;46.924;7.114;2024-03-08T01:55:53;1.60;99.90
22532;DHT22;11432;46.924;7.114;2024-03-08T01:58:19;1.60;99.90
22532;DHT22;11432;46.924;7.114;2024-03-08T02:00:48;1.60;99.90
22532;DHT22;11432;46.924;7.114;2024-03-08T02:03:17;1.50;99.90
22532;DHT22;11432;46.924;7.114;2024-03-08T02:05:43;1.40;99.90
22532;DHT22;11432;46.924;7.114;2024-03-08T02:08:11;1.40;99.90
22532;DHT22;11432;46.924;7.114;2024-03-08T02:10:41;1.40;99.90
22532;DHT22;11432;46.924;7.114;2024-03-08T02:13:10;1.40;99.90
22532;DHT22;11432;46.924;7.114;2024-03-08T02:15:54;1.40;99.90
22532;DHT22;11432;46.924;7.114;2024-03-08T02:18:20;1.40;99.90
22532;DHT22;11432;46.924;7.114;2024-03-08T02:20:51;1.70;99.90
22532;DHT22;11432;46.924;7.114;2024-03-08T02:23:18;1.50;99.90
22532;DHT22;11432;46.924;7.114;2024-03-08T02:25:44;1.50;99.90
22532;DHT22;11432;46.924;7.114;2024-03-08T02:28:13;1.60;99.90
22532;DHT22;11432;46.924;7.114;2024-03-08T02:30:39;1.60;99.90
22532;DHT22;11432;46.924;7.114;2024-03-08T02:33:05;1.70;99.90
22532;DHT22;11432;46.924;7.114;2024-03-08T02:35:32;1.70;99.90
22532;DHT22;11432;46.924;7.114;2024-03-08T02:37:58;1.70;99.90
22532;DHT22;11432;46.924;7.114;2024-03-08T02:40:23;1.80;99.90
22532;DHT22;11432;46.924;7.114;2024-03-08T02:42:49;1.80;99.90
22532;DHT22;11432;46.924;7.114;2024-03-08T02:45:15;1.90;99.90
22532;DHT22;11432;46.924;7.114;2024-03-08T02:47:40;1.80;99.90
22532;DHT22;11432;46.924;7.114;2024-03-08T02:50:07;1.80;99.90
22532;DHT22;11432;46.924;7.114;2024-03-08T02:52:35;1.90;99.90
22532;DHT22;11432;46.924;7.114;2024-03-08T02:55:02;1.90;99.90
22532;DHT22;11432;46.924;7.114;2024-03-08T02:57:27;2.00;99.90
22532;DHT22;11432;46.924;7.114;2024-03-08T02:59:55;1.90;99.90
22532;DHT22;11432;46.924;7.114;2024-03-08T03:02:21;1.90;99.90
22532;DHT22;11432;46.924;7.114;2024-03-08T03:04:48;1.90;99.90
22532;DHT22;11432;46.924;7.114;2024-03-08T03:07:14;1.90;99.90
22532;DHT22;11432;46.924;7.114;2024-03-08T03:09:39;1.90;99.90
22532;DHT22;11432;46.924;7.114;2024-03-08T03:12:06;1.90;99.90
22532;DHT22;11432;46.924;7.114;2024-03-08T03:14:35;2.00;99.90
22532;DHT22;11432;46.924;7.114;2024-03-08T03:17:04;2.10;99.90
22532;DHT22;11432;46.924;7.114;2024-03-08T03:19:30;2.10;99.90
22532;DHT22;11432;46.924;7.114;2024-03-08T03:21:55;2.00;99.90
22532;DHT22;11432;46.924;7.114;2024-03-08T03:24:21;2.00;99.90
22532;DHT22;11432;46.924;7.114;2024-03-08T03:26:48;1.90;99.90
22532;DHT22;11432;46.924;7.114;2024-03-08T03:29:15;1.90;99.90
22532;DHT22;11432;46.924;7.114;2024-03-08T03:31:42;1.90;99.90
22532;DHT22;11432;46.924;7.114;2024-03-08T03:34:10;2.00;99.90
22532;DHT22;11432;46.924;7.114;2024-03-08T03:36:36;2.00;99.90
22532;DHT22;11432;46.924;7.114;2024-03-08T03:39:03;2.00;99.90
22532;DHT22;11432;46.924;7.114;2024-03-08T03:41:37;2.00;99.90
22532;DHT22;11432;46.924;7.114;2024-03-08T03:44:04;1.90;99.90
22532;DHT22;11432;46.924;7.114;2024-03-08T03:46:30;1.90;99.90
22532;DHT22;11432;46.924;7.114;2024-03-08T03:48:56;1.80;99.90
22532;DHT22;11432;46.924;7.114;2024-03-08T03:51:22;1.80;99.90
22532;DHT22;11432;46.924;7.114;2024-03-08T03:53:48;1.80;99.90
22532;DHT22;11432;46.924;7.114;2024-03-08T03:56:13;1.80;99.90
22532;DHT22;11432;46.924;7.114;2024-03-08T03:58:39;1.80;99.90
22532;DHT22;11432;46.924;7.114;2024-03-08T04:01:05;1.80;99.90
22532;DHT22;11432;46.924;7.114;2024-03-08T04:03:31;1.80;99.90
22532;DHT22;11432;46.924;7.114;2024-03-08T04:05:56;1.80;99.90
22532;DHT22;11432;46.924;7.114;2024-03-08T04:08:22;1.90;99.90
22532;DHT22;11432;46.924;7.114;2024-03-08T04:10:50;1.80;99.90
22532;DHT22;11432;46.924;7.114;2024-03-08T04:13:16;1.90;99.90
22532;DHT22;11432;46.924;7.114;2024-03-08T04:15:42;1.80;99.90
22532;DHT22;11432;46.924;7.114;2024-03-08T04:18:10;1.80;99.90
22532;DHT22;11432;46.924;7.114;2024-03-08T04:20:36;1.80;99.90
22532;DHT22;11432;46.924;7.114;2024-03-08T04:23:02;1.70;99.90
22532;DHT22;11432;46.924;7.114;2024-03-08T04:25:28;1.70;99.90
22532;DHT22;11432;46.924;7.114;2024-03-08T04:27:53;1.70;99.90
22532;DHT22;11432;46.924;7.114;2024-03-08T04:30:19;1.70;99.90
22532;DHT22;11432;46.924;7.114;2024-03-08T04:32:46;1.70;99.90
22532;DHT22;11432;46.924;7.114;2024-03-08T04:35:13;1.70;99.90
22532;DHT22;11432;46.924;7.114;2024-03-08T04:37:38;1.70;99.90
22532;DHT22;11432;46.924;7.114;2024-03-08T04:40:05;1.60;99.90
22532;DHT22;11432;46.924;7.114;2024-03-08T04:42:31;1.70;99.90
22532;DHT22;11432;46.924;7.114;2024-03-08T04:44:58;1.70;99.90
22532;DHT22;11432;46.924;7.114;2024-03-08T04:47:24;1.70;99.90
22532;DHT22;11432;46.924;7.114;2024-03-08T04:49:50;1.70;99.90
22532;DHT22;11432;46.924;7.114;2024-03-08T04:52:16;1.80;99.90
22532;DHT22;11432;46.924;7.114;2024-03-08T04:54:43;1.80;99.90
22532;DHT22;11432;46.924;7.114;2024-03-08T04:57:08;1.80;99.90
22532;DHT22;11432;46.924;7.114;2024-03-08T04:59:34;1.80;99.90
22532;DHT22;11432;46.924;7.114;2024-03-08T05:01:59;1.80;99.90
22532;DHT22;11432;46.924;7.114;2024-03-08T05:04:25;1.80;99.90
22532;DHT22;11432;46.924;7.114;2024-03-08T05:06:51;1.80;99.90
22532;DHT22;11432;46.924;7.114;2024-03-08T05:09:16;1.80;99.90
22532;DHT22;11432;46.924;7.114;2024-03-08T05:11:43;1.80;99.90
22532;DHT22;11432;46.924;7.114;2024-03-08T05:14:09;1.80;99.90
22532;DHT22;11432;46.924;7.114;2024-03-08T05:16:35;1.80;99.90
22532;DHT22;11432;46.924;7.114;2024-03-08T05:19:02;1.70;99.90
22532;DHT22;11432;46.924;7.114;2024-03-08T05:21:27;1.70;99.90
22532;DHT22;11432;46.924;7.114;2024-03-08T05:23:54;1.60;99.90
22532;DHT22;11432;46.924;7.114;2024-03-08T05:26:20;1.70;99.90
22532;DHT22;11432;46.924;7.114;2024-03-08T05:28:47;1.70;99.90
22532;DHT22;11432;46.924;7.114;2024-03-08T05:31:20;1.70;99.90
22532;DHT22;11432;46.924;7.114;2024-03-08T05:33:48;1.80;99.90
22532;DHT22;11432;46.924;7.114;2024-03-08T05:36:14;1.70;99.90
22532;DHT22;11432;46.924;7.114;2024-03-08T05:38:40;1.80;99.90
22532;DHT22;11432;46.924;7.114;2024-03-08T05:41:07;1.80;99.90
22532;DHT22;11432;46.924;7.114;2024-03-08T05:43:33;1.80;99.90
22532;DHT22;11432;46.924;7.114;2024-03-08T05:45:58;1.80;99.90
22532;DHT22;11432;46.924;7.114;2024-03-08T05:48:24;1.70;99.90
22532;DHT22;11432;46.924;7.114;2024-03-08T05:50:50;1.70;99.90
22532;DHT22;11432;46.924;7.114;2024-03-08T05:53:16;1.80;99.90
22532;DHT22;11432;46.924;7.114;2024-03-08T05:55:41;1.70;99.90
22532;DHT22;11432;46.924;7.114;2024-03-08T05:58:07;1.60;99.90
22532;DHT22;11432;46.924;7.114;2024-03-08T06:00:34;1.60;99.90
22532;DHT22;11432;46.924;7.114;2024-03-08T06:02:59;1.60;99.90
22532;DHT22;11432;46.924;7.114;2024-03-08T06:05:25;1.50;99.90
22532;DHT22;11432;46.924;7.114;2024-03-08T06:07:51;1.50;99.90
22532;DHT22;11432;46.924;7.114;2024-03-08T06:10:19;1.60;99.90
22532;DHT22;11432;46.924;7.114;2024-03-08T06:12:45;1.60;99.90
22532;DHT22;11432;46.924;7.114;2024-03-08T06:15:11;1.70;99.90
22532;DHT22;11432;46.924;7.114;2024-03-08T06:17:40;1.70;99.90
22532;DHT22;11432;46.924;7.114;2024-03-08T06:20:06;1.80;99.90
22532;DHT22;11432;46.924;7.114;2024-03-08T06:22:39;1.80;99.90
22532;DHT22;11432;46.924;7.114;2024-03-08T06:25:08;1.80;99.90
22532;DHT22;11432;46.924;7.114;2024-03-08T06:27:35;1.90;99.90
22532;DHT22;11432;46.924;7.114;2024-03-08T06:30:01;1.90;99.90
22532;DHT22;11432;46.924;7.114;2024-03-08T06:32:27;1.90;99.90
22532;DHT22;11432;46.924;7.114;2024-03-08T06:34:52;1.80;99.90
22532;DHT22;11432;46.924;7.114;2024-03-08T06:37:18;1.90;99.90
22532;DHT22;11432;46.924;7.114;2024-03-08T06:39:48;1.90;99.90
22532;DHT22;11432;46.924;7.114;2024-03-08T06:42:14;1.80;99.90
22532;DHT22;11432;46.924;7.114;2024-03-08T06:44:39;1.70;99.90
22532;DHT22;11432;46.924;7.114;2024-03-08T06:47:14;1.70;99.90
22532;DHT22;11432;46.924;7.114;2024-03-08T06:49:41;1.60;99.90
22532;DHT22;11432;46.924;7.114;2024-03-08T06:52:07;1.70;99.90
22532;DHT22;11432;46.924;7.114;2024-03-08T06:54:34;1.70;99.90
22532;DHT22;11432;46.924;7.114;2024-03-08T06:57:02;1.70;99.90
22532;DHT22;11432;46.924;7.114;2024-03-08T06:59:28;1.80;99.90
22532;DHT22;11432;46.924;7.114;2024-03-08T07:01:54;1.60;99.90
22532;DHT22;11432;46.924;7.114;2024-03-08T07:04:20;1.60;99.90
22532;DHT22;11432;46.924;7.114;2024-03-08T07:06:47;1.70;99.90
22532;DHT22;11432;46.924;7.114;2024-03-08T07:09:15;1.70;99.90
22532;DHT22;11432;46.924;7.114;2024-03-08T07:11:42;1.90;99.90
22532;DHT22;11432;46.924;7.114;2024-03-08T07:14:08;2.00;99.90
22532;DHT22;11432;46.924;7.114;2024-03-08T07:16:34;2.00;99.90
22532;DHT22;11432;46.924;7.114;2024-03-08T07:19:01;2.10;99.90
22532;DHT22;11432;46.924;7.114;2024-03-08T07:21:27;2.30;99.90
22532;DHT22;11432;46.924;7.114;2024-03-08T07:23:53;3.10;99.90
22532;DHT22;11432;46.924;7.114;2024-03-08T07:26:31;2.80;99.90
22532;DHT22;11432;46.924;7.114;2024-03-08T07:28:57;2.60;99.90
22532;DHT22;11432;46.924;7.114;2024-03-08T07:31:24;2.40;99.90
22532;DHT22;11432;46.924;7.114;2024-03-08T07:34:09;2.50;99.90
22532;DHT22;11432;46.924;7.114;2024-03-08T07:36:35;2.50;99.90
22532;DHT22;11432;46.924;7.114;2024-03-08T07:39:01;2.60;99.90
22532;DHT22;11432;46.924;7.114;2024-03-08T07:41:27;2.70;99.90
22532;DHT22;11432;46.924;7.114;2024-03-08T07:43:55;2.60;99.90
22532;DHT22;11432;46.924;7.114;2024-03-08T07:46:21;2.50;99.90
22532;DHT22;11432;46.924;7.114;2024-03-08T07:48:46;2.60;99.90
22532;DHT22;11432;46.924;7.114;2024-03-08T07:53:00;2.70;99.90
22532;DHT22;11432;46.924;7.114;2024-03-08T07:55:28;2.60;99.90
22532;DHT22;11432;46.924;7.114;2024-03-08T07:57:54;2.70;99.90
22532;DHT22;11432;46.924;7.114;2024-03-08T08:00:20;2.70;99.90
22532;DHT22;11432;46.924;7.114;2024-03-08T08:02:47;2.70;99.90
22532;DHT22;11432;46.924;7.114;2024-03-08T08:05:14;2.80;99.90
22532;DHT22;11432;46.924;7.114;2024-03-08T08:07:43;2.80;99.90
22532;DHT22;11432;46.924;7.114;2024-03-08T08:10:09;2.80;99.90
22532;DHT22;11432;46.924;7.114;2024-03-08T08:12:40;2.80;99.90
22532;DHT22;11432;46.924;7.114;2024-03-08T08:15:07;2.80;99.90
22532;DHT22;11432;46.924;7.114;2024-03-08T08:17:33;2.80;99.90
22532;DHT22;11432;46.924;7.114;2024-03-08T08:20:00;2.80;99.90
22532;DHT22;11432;46.924;7.114;2024-03-08T08:22:25;2.90;99.90
22532;DHT22;11432;46.924;7.114;2024-03-08T08:24:51;2.90;99.90
22532;DHT22;11432;46.924;7.114;2024-03-08T08:27:17;2.90;99.90
22532;DHT22;11432;46.924;7.114;2024-03-08T08:29:43;3.00;99.90
22532;DHT22;11432;46.924;7.114;2024-03-08T08:32:08;3.00;99.90
22532;DHT22;11432;46.924;7.114;2024-03-08T08:34:35;3.00;99.90
22532;DHT22;11432;46.924;7.114;2024-03-08T08:37:01;3.10;99.90
22532;DHT22;11432;46.924;7.114;2024-03-08T08:39:27;3.10;99.90
22532;DHT22;11432;46.924;7.114;2024-03-08T08:41:53;3.30;99.90
22532;DHT22;11432;46.924;7.114;2024-03-08T08:44:18;3.30;99.90
22532;DHT22;11432;46.924;7.114;2024-03-08T08:46:44;3.30;99.90
22532;DHT22;11432;46.924;7.114;2024-03-08T08:49:09;3.30;99.90
22532;DHT22;11432;46.924;7.114;2024-03-08T08:51:41;3.50;99.90
22532;DHT22;11432;46.924;7.114;2024-03-08T08:54:07;3.50;99.90
22532;DHT22;11432;46.924;7.114;2024-03-08T08:56:33;3.60;99.90
22532;DHT22;11432;46.924;7.114;2024-03-08T08:58:59;3.50;99.90
22532;DHT22;11432;46.924;7.114;2024-03-08T09:01:24;3.50;99.90
22532;DHT22;11432;46.924;7.114;2024-03-08T09:03:50;3.60;99.90
22532;DHT22;11432;46.924;7.114;2024-03-08T09:06:16;3.70;99.90
22532;DHT22;11432;46.924;7.114;2024-03-08T09:08:42;3.70;99.90
22532;DHT22;11432;46.924;7.114;2024-03-08T09:11:09;3.70;99.90
22532;DHT22;11432;46.924;7.114;2024-03-08T09:13:35;3.70;99.90
22532;DHT22;11432;46.924;7.114;2024-03-08T09:16:02;3.90;99.90
22532;DHT22;11432;46.924;7.114;2024-03-08T09:18:28;3.90;99.90
22532;DHT22;11432;46.924;7.114;2024-03-08T09:20:54;4.00;99.90
22532;DHT22;11432;46.924;7.114;2024-03-08T09:23:20;4.10;99.90
22532;DHT22;11432;46.924;7.114;2024-03-08T09:25:46;4.00;68.40
22532;DHT22;11432;46.924;7.114;2024-03-08T09:28:12;4.10;1.00
22532;DHT22;11432;46.924;7.114;2024-03-08T09:30:40;4.10;1.00
22532;DHT22;11432;46.924;7.114;2024-03-08T09:33:06;4.20;1.00
22532;DHT22;11432;46.924;7.114;2024-03-08T09:35:32;4.10;1.00
22532;DHT22;11432;46.924;7.114;2024-03-08T09:37:58;4.10;1.00
22532;DHT22;11432;46.924;7.114;2024-03-08T09:40:23;4.00;1.00
22532;DHT22;11432;46.924;7.114;2024-03-08T09:42:51;4.00;1.00
22532;DHT22;11432;46.924;7.114;2024-03-08T09:45:20;4.10;1.00
22532;DHT22;11432;46.924;7.114;2024-03-08T09:47:47;4.20;1.00
22532;DHT22;11432;46.924;7.114;2024-03-08T09:50:14;4.30;1.00
22532;DHT22;11432;46.924;7.114;2024-03-08T09:52:40;4.30;1.00
22532;DHT22;11432;46.924;7.114;2024-03-08T09:55:07;4.30;1.00
22532;DHT22;11432;46.924;7.114;2024-03-08T09:57:33;4.30;1.00
22532;DHT22;11432;46.924;7.114;2024-03-08T10:00:00;4.30;1.00
22532;DHT22;11432;46.924;7.114;2024-03-08T10:02:26;4.40;1.00
22532;DHT22;11432;46.924;7.114;2024-03-08T10:04:52;4.50;99.90
22532;DHT22;11432;46.924;7.114;2024-03-08T10:07:18;4.30;1.00
22532;DHT22;11432;46.924;7.114;2024-03-08T10:09:44;4.30;1.00
22532;DHT22;11432;46.924;7.114;2024-03-08T10:12:16;4.30;1.00
22532;DHT22;11432;46.924;7.114;2024-03-08T10:14:42;4.30;1.00
22532;DHT22;11432;46.924;7.114;2024-03-08T10:17:09;4.30;1.00
22532;DHT22;11432;46.924;7.114;2024-03-08T10:19:35;4.50;99.90
22532;DHT22;11432;46.924;7.114;2024-03-08T10:22:00;4.60;99.90
22532;DHT22;11432;46.924;7.114;2024-03-08T10:24:26;4.60;1.00
22532;DHT22;11432;46.924;7.114;2024-03-08T10:27:04;4.50;1.00
22532;DHT22;11432;46.924;7.114;2024-03-08T10:29:31;4.60;1.00
22532;DHT22;11432;46.924;7.114;2024-03-08T10:31:56;4.70;1.00
22532;DHT22;11432;46.924;7.114;2024-03-08T10:34:23;4.70;1.00
22532;DHT22;11432;46.924;7.114;2024-03-08T10:36:50;4.70;1.00
22532;DHT22;11432;46.924;7.114;2024-03-08T10:39:24;4.70;1.00
22532;DHT22;11432;46.924;7.114;2024-03-08T10:41:57;4.90;1.00
22532;DHT22;11432;46.924;7.114;2024-03-08T10:47:18;5.00;99.90
22532;DHT22;11432;46.924;7.114;2024-03-08T10:49:50;5.00;1.00
22532;DHT22;11432;46.924;7.114;2024-03-08T10:52:18;5.10;99.90
22532;DHT22;11432;46.924;7.114;2024-03-08T10:54:45;5.30;1.00
22532;DHT22;11432;46.924;7.114;2024-03-08T10:57:13;5.30;1.00
22532;DHT22;11432;46.924;7.114;2024-03-08T10:59:40;5.30;1.00
22532;DHT22;11432;46.924;7.114;2024-03-08T11:02:11;5.40;1.00
22532;DHT22;11432;46.924;7.114;2024-03-08T11:04:37;5.60;1.00
22532;DHT22;11432;46.924;7.114;2024-03-08T11:07:04;5.70;99.90
22532;DHT22;11432;46.924;7.114;2024-03-08T11:09:34;5.80;1.00
22532;DHT22;11432;46.924;7.114;2024-03-08T11:12:20;6.00;99.90
22532;DHT22;11432;46.924;7.114;2024-03-08T11:14:50;5.90;99.90
22532;DHT22;11432;46.924;7.114;2024-03-08T11:17:20;5.60;1.00
22532;DHT22;11432;46.924;7.114;2024-03-08T11:19:48;5.50;99.90
22532;DHT22;11432;46.924;7.114;2024-03-08T11:22:27;5.50;1.00
22532;DHT22;11432;46.924;7.114;2024-03-08T11:24:53;5.60;1.00
22532;DHT22;11432;46.924;7.114;2024-03-08T11:27:19;5.80;1.00
22532;DHT22;11432;46.924;7.114;2024-03-08T11:30:01;5.90;1.00
22532;DHT22;11432;46.924;7.114;2024-03-08T11:32:35;5.90;1.00
22532;DHT22;11432;46.924;7.114;2024-03-08T11:35:06;6.00;99.90
22532;DHT22;11432;46.924;7.114;2024-03-08T11:37:34;6.30;1.00
22532;DHT22;11432;46.924;7.114;2024-03-08T11:40:05;6.50;1.00
22532;DHT22;11432;46.924;7.114;2024-03-08T11:42:37;6.60;1.00
22532;DHT22;11432;46.924;7.114;2024-03-08T11:45:08;6.50;1.00
22532;DHT22;11432;46.924;7.114;2024-03-08T11:47:35;6.70;1.00
22532;DHT22;11432;46.924;7.114;2024-03-08T11:50:00;6.80;1.00
22532;DHT22;11432;46.924;7.114;2024-03-08T11:52:28;6.80;1.00
22532;DHT22;11432;46.924;7.114;2024-03-08T11:54:55;6.70;12.40
22532;DHT22;11432;46.924;7.114;2024-03-08T11:57:24;6.80;99.90
22532;DHT22;11432;46.924;7.114;2024-03-08T11:59:53;6.80;99.90
22532;DHT22;11432;46.924;7.114;2024-03-08T12:02:19;6.90;99.90
22532;DHT22;11432;46.924;7.114;2024-03-08T12:04:59;6.90;99.90
22532;DHT22;11432;46.924;7.114;2024-03-08T12:07:26;6.60;99.90
22532;DHT22;11432;46.924;7.114;2024-03-08T12:12:48;6.80;99.90
22532;DHT22;11432;46.924;7.114;2024-03-08T12:15:15;7.40;99.90
22532;DHT22;11432;46.924;7.114;2024-03-08T12:17:44;8.10;7.80
22532;DHT22;11432;46.924;7.114;2024-03-08T12:22:51;8.30;99.90
22532;DHT22;11432;46.924;7.114;2024-03-08T12:25:18;9.00;1.00
22532;DHT22;11432;46.924;7.114;2024-03-08T12:27:46;9.60;1.00
22532;DHT22;11432;46.924;7.114;2024-03-08T12:30:22;9.20;1.00
22532;DHT22;11432;46.924;7.114;2024-03-08T12:32:56;8.60;1.00
22532;DHT22;11432;46.924;7.114;2024-03-08T12:35:29;8.60;1.00
22532;DHT22;11432;46.924;7.114;2024-03-08T12:37:57;9.00;1.00
22532;DHT22;11432;46.924;7.114;2024-03-08T12:40:30;8.90;1.00
22532;DHT22;11432;46.924;7.114;2024-03-08T12:42:57;8.00;1.00
22532;DHT22;11432;46.924;7.114;2024-03-08T12:45:24;7.30;1.00
22532;DHT22;11432;46.924;7.114;2024-03-08T12:47:51;6.60;1.00
22532;DHT22;11432;46.924;7.114;2024-03-08T12:50:17;6.40;99.90
22532;DHT22;11432;46.924;7.114;2024-03-08T12:52:43;6.50;99.90
22532;DHT22;11432;46.924;7.114;2024-03-08T12:55:09;6.50;99.90
22532;DHT22;11432;46.924;7.114;2024-03-08T12:57:35;6.60;99.90
22532;DHT22;11432;46.924;7.114;2024-03-08T13:00:03;6.60;99.90
22532;DHT22;11432;46.924;7.114;2024-03-08T13:02:29;6.60;99.90
22532;DHT22;11432;46.924;7.114;2024-03-08T13:04:56;6.80;99.90
22532;DHT22;11432;46.924;7.114;2024-03-08T13:07:25;7.20;99.90
22532;DHT22;11432;46.924;7.114;2024-03-08T13:09:54;7.70;99.90
22532;DHT22;11432;46.924;7.114;2024-03-08T13:12:23;8.30;1.00
22532;DHT22;11432;46.924;7.114;2024-03-08T13:14:49;8.40;1.00
22532;DHT22;11432;46.924;7.114;2024-03-08T13:17:15;8.90;1.00
22532;DHT22;11432;46.924;7.114;2024-03-08T13:19:41;9.40;1.00
22532;DHT22;11432;46.924;7.114;2024-03-08T13:22:08;9.80;1.00
22532;DHT22;11432;46.924;7.114;2024-03-08T13:24:38;9.90;1.00
22532;DHT22;11432;46.924;7.114;2024-03-08T13:27:06;9.90;99.90
22532;DHT22;11432;46.924;7.114;2024-03-08T13:29:42;10.00;1.00
22532;DHT22;11432;46.924;7.114;2024-03-08T13:32:08;9.50;1.00
22532;DHT22;11432;46.924;7.114;2024-03-08T13:34:40;9.90;1.00
22532;DHT22;11432;46.924;7.114;2024-03-08T13:37:06;10.30;1.00
22532;DHT22;11432;46.924;7.114;2024-03-08T13:39:31;10.60;1.00
22532;DHT22;11432;46.924;7.114;2024-03-08T13:42:07;10.90;1.00
22532;DHT22;11432;46.924;7.114;2024-03-08T13:44:35;10.30;1.00
22532;DHT22;11432;46.924;7.114;2024-03-08T13:47:02;9.80;1.00
22532;DHT22;11432;46.924;7.114;2024-03-08T13:49:30;9.70;1.00
22532;DHT22;11432;46.924;7.114;2024-03-08T13:51:55;9.50;1.00
22532;DHT22;11432;46.924;7.114;2024-03-08T13:54:24;9.90;1.00
22532;DHT22;11432;46.924;7.114;2024-03-08T13:56:50;11.00;1.00
22532;DHT22;11432;46.924;7.114;2024-03-08T13:59:19;11.50;1.00
22532;DHT22;11432;46.924;7.114;2024-03-08T14:01:48;11.60;1.00
22532;DHT22;11432;46.924;7.114;2024-03-08T14:04:17;11.40;1.00
22532;DHT22;11432;46.924;7.114;2024-03-08T14:06:43;10.60;1.00
22532;DHT22;11432;46.924;7.114;2024-03-08T14:09:13;10.70;1.00
22532;DHT22;11432;46.924;7.114;2024-03-08T14:11:45;11.10;1.00
22532;DHT22;11432;46.924;7.114;2024-03-08T14:14:11;11.80;1.00
22532;DHT22;11432;46.924;7.114;2024-03-08T14:16:39;11.80;1.00
22532;DHT22;11432;46.924;7.114;2024-03-08T14:19:05;12.10;1.00
22532;DHT22;11432;46.924;7.114;2024-03-08T14:21:34;12.40;1.00
22532;DHT22;11432;46.924;7.114;2024-03-08T14:23:59;12.10;1.00
22532;DHT22;11432;46.924;7.114;2024-03-08T14:26:25;11.20;1.00
22532;DHT22;11432;46.924;7.114;2024-03-08T14:28:51;10.40;1.00
22532;DHT22;11432;46.924;7.114;2024-03-08T14:31:20;9.90;1.00
22532;DHT22;11432;46.924;7.114;2024-03-08T14:33:46;9.70;1.00
22532;DHT22;11432;46.924;7.114;2024-03-08T14:36:15;9.50;1.00
22532;DHT22;11432;46.924;7.114;2024-03-08T14:38:42;9.20;1.00
22532;DHT22;11432;46.924;7.114;2024-03-08T14:41:08;9.20;99.90
22532;DHT22;11432;46.924;7.114;2024-03-08T14:43:34;9.20;99.90
22532;DHT22;11432;46.924;7.114;2024-03-08T14:46:00;9.10;99.90
22532;DHT22;11432;46.924;7.114;2024-03-08T14:48:25;9.00;99.90
22532;DHT22;11432;46.924;7.114;2024-03-08T14:50:51;8.80;99.90
22532;DHT22;11432;46.924;7.114;2024-03-08T14:53:17;8.70;99.90
22532;DHT22;11432;46.924;7.114;2024-03-08T14:55:43;8.70;99.90
22532;DHT22;11432;46.924;7.114;2024-03-08T14:58:12;8.70;99.90
22532;DHT22;11432;46.924;7.114;2024-03-08T15:00:38;8.60;1.00
22532;DHT22;11432;46.924;7.114;2024-03-08T15:03:05;8.70;1.00
22532;DHT22;11432;46.924;7.114;2024-03-08T15:05:33;8.60;1.00
22532;DHT22;11432;46.924;7.114;2024-03-08T15:08:03;8.60;1.00
22532;DHT22;11432;46.924;7.114;2024-03-08T15:10:35;8.50;99.90
22532;DHT22;11432;46.924;7.114;2024-03-08T15:13:00;8.60;99.90
22532;DHT22;11432;46.924;7.114;2024-03-08T15:15:27;8.70;99.90
22532;DHT22;11432;46.924;7.114;2024-03-08T15:17:55;8.80;99.90
22532;DHT22;11432;46.924;7.114;2024-03-08T15:20:23;8.80;99.90
22532;DHT22;11432;46.924;7.114;2024-03-08T15:22:51;8.80;99.90
22532;DHT22;11432;46.924;7.114;2024-03-08T15:25:21;8.90;99.90
22532;DHT22;11432;46.924;7.114;2024-03-08T15:27:51;8.80;99.90
22532;DHT22;11432;46.924;7.114;2024-03-08T15:30:17;8.80;99.90
22532;DHT22;11432;46.924;7.114;2024-03-08T15:32:50;8.70;99.90
22532;DHT22;11432;46.924;7.114;2024-03-08T15:35:16;8.60;99.90
22532;DHT22;11432;46.924;7.114;2024-03-08T15:37:44;8.60;99.90
22532;DHT22;11432;46.924;7.114;2024-03-08T15:40:14;8.60;99.90
22532;DHT22;11432;46.924;7.114;2024-03-08T15:42:55;8.70;1.00
22532;DHT22;11432;46.924;7.114;2024-03-08T15:45:22;8.80;1.00
22532;DHT22;11432;46.924;7.114;2024-03-08T15:47:52;8.80;1.00
22532;DHT22;11432;46.924;7.114;2024-03-08T15:50:18;8.50;1.00
22532;DHT22;11432;46.924;7.114;2024-03-08T15:52:46;8.60;1.00
22532;DHT22;11432;46.924;7.114;2024-03-08T15:55:16;8.60;1.00
22532;DHT22;11432;46.924;7.114;2024-03-08T15:57:49;8.70;99.90
22532;DHT22;11432;46.924;7.114;2024-03-08T16:00:17;8.80;1.00